Time;durP1;ratioP1;P1;durP2;ratioP2;P2;SDS_P1;SDS_P2;PMS_P1;PMS_P2;Temp;Humidity;BMP_temperature;BMP_pressure;BME280_temperature;BME280_humidity;BME280_pressure;Samples;Min_cycle;Max_cycle;Signal;HPM_P1;HPM_P2
2022/12/08 00:02:03;;;;;;;12.75;5.30;;;-1.30;99.90;;;-3.24;100.00;100311.47;4956600;28;20067;-84
2022/12/08 00:19:00;;;;;;;16.02;6.30;;;-1.30;99.90;;;-3.20;100.00;100310.59;5004505;28;20058;-85
2022/12/08 00:22:33;;;;;;;13.60;6.45;;;-1.30;99.90;;;-3.20;100.00;100310.59;4979546;28;20526;-84
2022/12/08 00:26:24;;;;;;;;;;;;;;;;;;;;;
2022/12/08 00:28:53;;;;;;;16.08;7.22;;;;;;;-3.20;100.00;100322.63;4985174;28;20563;-84
2022/12/08 00:32:41;;;;;;;14.38;6.40;;;-1.30;99.90;;;-3.19;100.00;100314.91;4992800;23;20031;-85
2022/12/08 00:35:32;;;;;;;13.02;7.03;;;-1.30;99.90;;;-3.21;100.00;100308.03;5021022;28;20110;-85
2022/12/08 00:39:34;;;;;;;18.35;7.22;;;-1.30;99.90;;;-3.24;100.00;100303.75;5005787;28;20033;-85
2022/12/08 00:42:12;;;;;;;18.70;6.82;;;;;;;-3.21;100.00;100305.47;4915746;29;20059;-86
2022/12/08 00:45:11;;;;;;;17.88;6.97;;;-1.40;99.90;;;-3.21;100.00;100305.47;4931289;29;20050;-85
2022/12/08 00:54:13;;;;;;;13.85;6.63;;;-1.40;99.90;;;-3.28;100.00;100308.84;5056527;23;20037;-85
2022/12/08 00:56:42;;;;;;;15.25;6.85;;;;;;;-3.31;100.00;100307.97;4971994;28;20030;-85
2022/12/08 00:59:23;;;;;;;13.90;7.28;;;-1.40;99.90;;;-3.28;100.00;100303.69;4976166;28;20038;-85
2022/12/08 01:03:15;;;;;;;;;;;;;;;;;;;;;
2022/12/08 01:08:52;;;;;;;21.08;8.15;;;-1.30;99.90;;;-3.20;100.00;100312.31;4952455;28;20713;-84
2022/12/08 01:14:33;;;;;;;19.77;7.80;;;-1.40;99.90;;;-3.20;100.00;100312.31;4977950;28;20331;-83
2022/12/08 01:17:13;;;;;;;19.85;7.32;;;-1.40;99.90;;;-3.21;100.00;100306.31;4902758;29;20129;-84
2022/12/08 01:23:22;;;;;;;10.77;6.30;;;-1.30;99.90;;;-3.21;100.00;100298.59;4917101;29;20051;-84
2022/12/08 01:26:32;;;;;;;17.25;7.18;;;-1.30;99.90;;;-3.20;100.00;100289.13;4903673;29;20103;-84
2022/12/08 01:30:32;;;;;;;12.07;6.10;;;-1.30;99.90;;;-3.17;100.00;100302.03;4912727;29;20048;-84
2022/12/08 01:35:54;;;;;;;13.80;6.38;;;-1.30;99.90;;;-3.22;100.00;100289.13;5109291;23;20075;-83
2022/12/08 01:38:34;;;;;;;14.95;6.28;;;;;;;-3.23;100.00;100302.88;5009998;28;20040;-82
2022/12/08 02:04:37;;;;;;;21.40;7.53;;;-1.70;99.90;;;-3.54;100.00;100268.47;5051637;28;20049;-83
2022/12/08 02:07:05;;;;;;;22.20;7.88;;;-1.70;99.90;;;-3.55;100.00;100275.28;5037606;28;20048;-83
2022/12/08 02:13:35;;;;;;;;;;;;;;;;;;;;;
2022/12/08 02:16:52;;;;;;;20.02;7.68;;;-1.70;99.90;;;-3.59;100.00;100260.69;4988795;28;20036;-85
2022/12/08 02:20:21;;;;;;;16.95;8.20;;;-1.70;99.90;;;-3.56;100.00;100254.72;4909381;29;20493;-82
2022/12/08 02:23:54;;;;;;;18.70;7.65;;;-1.60;99.90;;;-3.51;100.00;100253.88;5044336;28;20069;-83
2022/12/08 02:38:42;;;;;;;20.00;7.95;;;-1.50;99.90;;;-3.34;100.00;100237.63;5002554;28;20042;-83
2022/12/08 02:42:03;;;;;;;;;;;-1.40;99.90;;;-3.34;100.00;100240.19;5004653;28;20102;-83
2022/12/08 02:44:53;;;;;;;19.83;8.02;;;-1.40;99.90;;;-3.36;100.00;100240.19;4976086;28;20691;-83
2022/12/08 02:48:21;;;;;;;16.58;6.90;;;-1.40;99.90;;;-3.32;100.00;100236.75;4961610;28;20038;-82
2022/12/08 02:53:43;;;;;;;12.18;6.55;;;-1.40;99.90;;;-3.22;100.00;100237.63;5103756;23;20053;-83
2022/12/08 02:56:33;;;;;;;19.60;6.85;;;-1.40;99.90;;;-3.21;100.00;100231.63;5075051;28;20115;-82
2022/12/08 02:59:29;;;;;;;15.75;7.05;;;-1.30;99.90;;;-3.18;100.00;100225.63;5062458;28;20054;-82
2022/12/08 03:02:47;;;;;;;20.80;8.75;;;-1.30;99.90;;;-3.12;100.00;100229.06;5057064;28;20025;-84
2022/12/08 03:05:58;;;;;;;15.65;6.75;;;-1.30;99.90;;;-3.06;100.00;100224.78;5069226;28;20044;-83
2022/12/08 03:08:59;;;;;;;16.65;7.03;;;-1.20;99.90;;;-3.03;100.00;100227.34;5080145;28;20020;-81
2022/12/08 03:12:17;;;;;;;17.63;6.70;;;-1.20;99.90;;;-3.00;100.00;100227.34;5046423;28;20048;-89
2022/12/08 03:15:31;;;;;;;14.95;6.75;;;-1.10;99.90;;;-2.92;100.00;100223.06;5027325;28;20037;-83
2022/12/08 03:21:24;;;;;;;13.15;6.03;;;;;;;-2.84;100.00;100225.66;5064385;28;20042;-82
2022/12/08 03:24:24;;;;;;;11.20;5.18;;;;;;;-2.78;100.00;100216.19;5064348;28;20029;-83
2022/12/08 03:27:33;;;;;;;12.45;6.38;;;;;;;-2.71;100.00;100210.19;5054915;28;20047;-87
2022/12/08 03:37:14;;;;;;;12.98;6.15;;;-1.00;99.90;;;-2.74;100.00;100205.03;4850361;29;20053;-84
2022/12/08 03:40:23;;;;;;;14.80;6.43;;;-0.90;99.90;;;-2.72;100.00;100198.16;4863616;29;20105;-84
2022/12/08 03:43:21;;;;;;;15.43;6.20;;;;;;;-2.72;100.00;100198.16;4915969;29;20040;-84
2022/12/08 03:46:02;;;;;;;14.88;6.53;;;-0.90;99.90;;;-2.66;100.00;100192.13;4979124;28;20403;-84
2022/12/08 03:49:41;;;;;;;13.95;6.32;;;-0.90;99.90;;;-2.65;100.00;100190.44;4976932;28;20046;-83
2022/12/08 03:52:52;;;;;;;14.88;6.43;;;-0.90;99.90;;;-2.64;100.00;100182.66;4911581;29;20126;-84
2022/12/08 03:55:33;;;;;;;13.13;5.78;;;;;;;-2.62;100.00;100185.25;4981827;28;20042;-83
2022/12/08 03:58:02;;;;;;;14.77;6.07;;;-0.80;99.90;;;-2.64;100.00;100181.81;5008598;28;20029;-83
2022/12/08 04:00:52;;;;;;;16.95;5.45;;;;;;;-2.54;100.00;100173.22;4987666;28;20037;-83
2022/12/08 04:03:52;;;;;;;12.02;5.30;;;-0.80;99.90;;;-2.54;100.00;100163.75;5007334;28;20124;-83
2022/12/08 04:06:43;;;;;;;50.65;16.95;;;;;;;-2.49;100.00;100171.47;5033882;28;20045;-84
2022/12/08 04:09:12;;;;;;;28.27;11.18;;;;;;;-2.42;100.00;100162.00;5063918;28;20025;-83
2022/12/08 04:12:03;;;;;;;12.63;5.00;;;-0.60;99.90;;;-2.39;100.00;100157.72;5066331;28;20040;-83
2022/12/08 04:14:32;;;;;;;15.90;5.53;;;;;;;-2.44;100.00;100146.56;5067557;28;20028;-87
2022/12/08 04:18:00;;;;;;;12.55;5.13;;;-0.70;99.90;;;-2.47;100.00;100142.25;5063683;28;20037;-84
2022/12/08 04:20:53;;;;;;;15.13;5.82;;;-0.70;99.90;;;-2.51;100.00;100131.94;5013224;28;20037;-84
2022/12/08 04:23:33;;;;;;;12.13;5.13;;;;;;;-2.44;100.00;100140.53;5065716;28;20033;-84
2022/12/08 04:26:03;;;;;;;15.98;5.18;;;;;;;-2.40;100.00;100145.66;5066755;28;20440;-84
2022/12/08 04:28:53;;;;;;;13.98;5.38;;;-0.60;99.90;;;-2.32;100.00;100153.38;5067580;28;20493;-84
2022/12/08 04:31:22;;;;;;;38.78;13.45;;;-0.60;99.90;;;-2.28;100.00;100160.25;5042771;28;20040;-83
2022/12/08 04:34:32;;;;;;;39.85;13.95;;;-0.50;99.90;;;-2.22;100.00;100159.38;5052604;28;20025;-84
2022/12/08 04:38:02;;;;;;;26.83;7.53;;;-0.50;99.90;;;-2.18;100.00;100158.50;4988689;28;20038;-83
2022/12/08 04:40:51;;;;;;;15.95;7.00;;;-0.50;99.90;;;-2.18;100.00;100166.22;5001035;28;20033;-83
2022/12/08 04:43:52;;;;;;;14.90;6.28;;;;;;;-2.17;100.00;100180.84;5037267;28;20060;-84
2022/12/08 04:46:51;;;;;;;14.90;5.57;;;-0.40;99.90;;;-2.15;100.00;100179.97;5062314;28;20044;-83
2022/12/08 04:49:42;;;;;;;16.88;6.40;;;-0.40;99.90;;;-2.14;100.00;100173.09;5050622;28;20071;-84
2022/12/08 04:52:42;;;;;;;17.17;6.63;;;-0.40;99.90;;;-2.13;100.00;100182.56;5072183;28;20055;-83
2022/12/08 04:55:53;;;;;;;18.88;6.50;;;-0.40;99.90;;;-2.14;100.00;100167.94;5061279;28;20033;-84
2022/12/08 04:58:33;;;;;;;23.65;10.95;;;;;;;-2.09;100.00;100168.78;5032142;28;20037;-83
2022/12/08 05:01:42;;;;;;;30.80;11.20;;;-0.40;99.90;;;-2.12;100.00;100161.91;5063119;28;20035;-83
2022/12/08 05:04:23;;;;;;;23.98;9.35;;;;;;;-2.03;100.00;100166.19;5040303;28;20029;-84
2022/12/08 05:07:01;;;;;;;15.65;5.88;;;;;;;-2.03;100.00;100167.91;5054562;28;20065;-83
2022/12/08 05:10:11;;;;;;;15.85;5.75;;;-0.30;99.90;;;-2.02;100.00;100162.75;5066598;28;20477;-83
2022/12/08 05:13:43;;;;;;;14.52;5.68;;;-0.30;99.90;;;-1.99;100.00;100162.72;5046189;28;20036;-84
2022/12/08 05:16:41;;;;;;;14.25;5.50;;;-0.30;99.90;;;-1.99;100.00;100157.53;4996266;28;20045;-85
2022/12/08 05:19:21;;;;;;;21.00;5.18;;;;;;;-1.97;100.00;100153.25;4974979;28;20029;-84
2022/12/08 05:22:13;;;;;;;9.75;5.00;;;-0.20;99.90;;;-1.93;100.00;100146.34;5003682;28;20702;-85
2022/12/08 05:24:42;;;;;;;17.40;5.68;;;-0.20;99.90;;;-1.88;100.00;100145.47;4984260;28;20159;-85
2022/12/08 05:27:52;;;;;;;12.15;5.45;;;-0.20;99.90;;;-1.92;100.00;100143.78;4978078;28;20035;-84
2022/12/08 05:30:42;;;;;;;7.90;4.57;;;;;;;-1.90;100.00;100144.63;4992342;28;20464;-86
2022/12/08 05:33:13;;;;;;;10.35;4.93;;;;;;;-1.85;100.00;100147.19;4978192;28;20046;-84
2022/12/08 05:36:02;;;;;;;10.82;4.65;;;-0.10;99.90;;;-1.92;100.00;100148.94;4994050;28;20023;-84
2022/12/08 05:38:31;;;;;;;12.43;4.53;;;;;;;-1.86;100.00;100148.91;4973956;28;20026;-84
2022/12/08 05:41:29;;;;;;;15.85;5.45;;;-0.10;99.90;;;-1.82;100.00;100147.16;5056875;28;20033;-83
2022/12/08 05:44:10;;;;;;;16.52;5.72;;;-0.10;99.90;;;-1.81;100.00;100135.09;5062850;28;20076;-86
2022/12/08 05:47:13;;;;;;;11.32;5.30;;;;;;;-1.73;100.00;100141.97;5066629;28;20482;-83
2022/12/08 05:49:54;;;;;;;12.20;5.15;;;0.00;99.90;;;-1.73;100.00;100144.53;5056840;28;20043;-83
2022/12/08 05:52:22;;;;;;;10.63;4.00;;;0.00;99.90;;;-1.74;100.00;100144.53;5053245;28;20049;-84
2022/12/08 05:57:43;;;;;;;10.32;3.53;;;0.00;99.90;;;-1.90;100.00;100121.41;5055716;28;20056;-84
2022/12/08 06:00:59;;;;;;;12.00;3.35;;;;;;;-1.88;100.00;100126.53;5059048;28;20554;-84
2022/12/08 06:03:22;;;;;;;13.95;3.78;;;0.00;99.90;;;-1.79;100.00;100116.19;5048628;28;20123;-84
2022/12/08 06:06:11;;;;;;;12.38;4.05;;;;;;;-1.75;100.00;100117.00;5056836;28;20072;-85
2022/12/08 06:08:42;;;;;;;10.68;3.60;;;;;;;-1.73;100.00;100118.72;5051468;28;20103;-84
2022/12/08 06:12:16;;;;;;;;;;;;;;;;;;;;;
2022/12/08 06:14:32;;;;;;;10.10;3.80;;;0.00;99.90;;;-1.76;100.00;100123.91;5062758;22;20053;-79
2022/12/08 06:16:57;;;;;;;13.60;4.38;;;0.00;99.90;;;-1.79;100.00;100108.44;5043791;28;20105;-80
2022/12/08 06:19:23;;;;;;;16.48;4.53;;;0.00;99.90;;;-1.78;100.00;100111.88;5043908;28;20440;-78
2022/12/08 06:21:51;;;;;;;14.63;4.63;;;0.00;99.90;;;-1.86;100.00;100104.16;5043628;28;20029;-78
2022/12/08 06:24:17;;;;;;;13.07;4.75;;;0.00;99.90;;;-1.81;100.00;100099.84;5024498;28;20534;-78
2022/12/08 06:26:43;;;;;;;19.23;4.75;;;0.00;99.90;;;-1.80;100.00;100095.53;5008665;28;20129;-78
2022/12/08 06:29:09;;;;;;;12.27;5.25;;;0.00;99.90;;;-1.80;100.00;100092.94;5007125;28;20152;-80
2022/12/08 06:31:35;;;;;;;17.10;4.80;;;0.00;99.90;;;-1.75;100.00;100091.19;5022581;28;20132;-76
2022/12/08 06:34:00;;;;;;;10.13;4.55;;;0.00;99.90;;;-1.78;100.00;100091.22;5005987;28;20770;-77
2022/12/08 06:36:27;;;;;;;14.73;4.60;;;0.00;99.90;;;-1.80;100.00;100086.06;5008252;28;20628;-79
2022/12/08 06:38:55;;;;;;;11.68;3.63;;;0.00;99.90;;;-1.81;100.00;100088.63;5006857;28;20069;-79
2022/12/08 06:41:21;;;;;;;18.85;4.70;;;0.00;99.90;;;-1.85;100.00;100092.97;5024768;28;20595;-77
2022/12/08 06:43:47;;;;;;;11.80;4.00;;;0.00;99.90;;;-1.79;100.00;100092.94;5022813;28;20033;-80
2022/12/08 06:46:17;;;;;;;11.52;5.07;;;0.00;99.90;;;-1.86;100.00;100089.56;5003886;28;20101;-79
2022/12/08 06:48:43;;;;;;;13.25;4.97;;;-0.10;99.90;;;-1.91;100.00;100087.84;5008755;28;20087;-79
2022/12/08 06:51:16;;;;;;;10.98;4.00;;;0.00;99.90;;;-1.84;100.00;100083.50;5009624;28;20504;-79
2022/12/08 06:53:43;;;;;;;10.77;4.07;;;-0.10;99.90;;;-1.89;100.00;100079.22;5011649;28;20393;-79
2022/12/08 06:56:10;;;;;;;14.90;5.05;;;0.00;99.90;;;-1.82;100.00;100079.19;5020574;28;20028;-80
2022/12/08 06:58:36;;;;;;;16.00;4.70;;;0.00;99.90;;;-1.81;100.00;100075.72;5021317;28;20033;-80
2022/12/08 07:01:12;;;;;;;11.32;4.55;;;0.00;99.90;;;-1.79;100.00;100074.88;5025661;28;20034;-79
2022/12/08 07:03:39;;;;;;;18.80;4.75;;;0.00;99.90;;;-1.93;100.00;100077.53;4989713;28;20080;-80
2022/12/08 07:06:18;;;;;;;10.65;4.80;;;-0.10;99.90;;;-1.87;100.00;100076.66;5006378;28;20030;-80
2022/12/08 07:08:44;;;;;;;16.38;4.95;;;0.00;99.90;;;-1.88;100.00;100082.66;5008968;28;20104;-79
2022/12/08 07:11:12;;;;;;;15.60;5.35;;;0.00;99.90;;;-1.81;100.00;100071.44;5006326;28;20068;-79
2022/12/08 07:13:38;;;;;;;16.08;5.45;;;0.00;99.90;;;-1.80;100.00;100074.88;5006318;28;20565;-79
2022/12/08 07:16:09;;;;;;;16.35;5.10;;;0.00;99.90;;;-1.81;100.00;100073.16;5023060;28;20025;-78
2022/12/08 07:18:36;;;;;;;18.40;6.03;;;0.10;99.90;;;-1.69;100.00;100070.50;5021467;28;20026;-79
2022/12/08 07:21:09;;;;;;;18.15;6.03;;;0.10;99.90;;;-1.64;100.00;100066.19;5006517;28;20018;-79
2022/12/08 07:23:36;;;;;;;19.67;6.53;;;0.10;99.90;;;-1.69;100.00;100067.91;5021946;28;20040;-79
2022/12/08 07:26:06;;;;;;;14.88;5.65;;;0.10;99.90;;;-1.66;100.00;100076.50;5014025;28;20079;-79
2022/12/08 07:28:34;;;;;;;19.20;6.22;;;0.10;99.90;;;-1.66;100.00;100073.94;5007416;28;20037;-79
2022/12/08 07:31:00;;;;;;;17.67;6.32;;;0.20;99.90;;;-1.61;100.00;100075.63;4990711;28;20569;-80
2022/12/08 07:33:26;;;;;;;19.60;7.22;;;0.20;99.90;;;-1.65;100.00;100064.44;5008737;28;20053;-80
2022/12/08 07:36:02;;;;;;;16.48;6.68;;;0.20;99.90;;;-1.56;100.00;100066.97;5005547;28;20034;-79
2022/12/08 07:38:28;;;;;;;15.20;6.75;;;0.20;99.90;;;-1.59;100.00;100071.31;5006759;28;20088;-80
2022/12/08 07:40:54;;;;;;;27.10;7.63;;;0.20;99.90;;;-1.52;100.00;100068.66;4988693;28;20030;-78
2022/12/08 07:43:21;;;;;;;24.08;7.78;;;0.20;99.90;;;-1.53;100.00;100066.09;5011691;28;20033;-80
2022/12/08 07:45:50;;;;;;;18.08;6.45;;;0.30;99.90;;;-1.55;100.00;100054.94;5004412;28;20040;-79
2022/12/08 07:48:18;;;;;;;20.67;7.43;;;0.30;99.90;;;-1.54;100.00;100060.06;5021889;28;20068;-79
2022/12/08 07:50:46;;;;;;;16.67;7.32;;;0.20;99.90;;;-1.58;100.00;100058.38;5007314;28;20038;-78
2022/12/08 07:53:12;;;;;;;22.33;7.20;;;0.20;99.90;;;-1.68;100.00;100049.00;5002672;28;20033;-79
2022/12/08 07:55:45;;;;;;;21.65;7.43;;;0.20;99.90;;;-1.58;100.00;100049.78;5005653;28;20045;-80
2022/12/08 07:58:11;;;;;;;22.90;8.85;;;0.30;99.90;;;-1.46;100.00;100054.84;5020998;28;20033;-79
2022/12/08 08:00:37;;;;;;;25.65;10.25;;;0.30;99.90;;;-1.35;100.00;100057.34;5006306;28;20026;-79
2022/12/08 08:03:03;;;;;;;30.77;10.50;;;0.40;99.90;;;-1.24;100.00;100061.53;5004454;28;20061;-79
2022/12/08 08:05:28;;;;;;;22.17;8.40;;;0.40;99.90;;;-1.31;100.00;100061.59;4986756;28;20505;-79
2022/12/08 08:07:54;;;;;;;30.60;11.02;;;0.40;99.90;;;-1.31;100.00;100059.88;5021650;28;20036;-79
2022/12/08 08:10:23;;;;;;;35.55;12.70;;;0.50;99.90;;;-1.16;100.00;100076.13;5020794;28;20037;-80
2022/12/08 08:12:49;;;;;;;25.08;9.25;;;0.60;99.90;;;-1.05;100.00;100075.13;4990221;28;20034;-80
2022/12/08 08:15:16;;;;;;;20.20;8.05;;;0.60;99.90;;;-1.04;100.00;100078.56;5024502;28;20048;-79
2022/12/08 08:17:42;;;;;;;25.27;7.47;;;0.60;99.90;;;-1.18;100.00;100073.53;4985490;28;20048;-78
2022/12/08 08:20:08;;;;;;;21.45;7.63;;;0.60;99.90;;;-1.12;100.00;100065.75;5021593;28;20025;-79
2022/12/08 08:22:35;;;;;;;16.48;5.85;;;0.60;99.90;;;-1.20;100.00;100064.94;5003543;28;20109;-79
2022/12/08 08:25:05;;;;;;;17.35;5.57;;;0.60;99.90;;;-1.19;100.00;100070.97;5002858;28;20034;-79
2022/12/08 08:27:31;;;;;;;22.70;7.60;;;0.60;99.90;;;-1.05;100.00;100069.97;5021629;28;20052;-79
2022/12/08 08:29:57;;;;;;;18.77;6.53;;;0.70;99.90;;;-1.02;100.00;100068.22;5004613;28;20559;-80
2022/12/08 08:32:23;;;;;;;15.77;6.50;;;0.70;99.90;;;-1.03;100.00;100064.78;5002068;28;20062;-79
2022/12/08 08:34:50;;;;;;;14.35;5.18;;;0.70;99.90;;;-1.20;100.00;100075.28;5022374;28;20506;-80
2022/12/08 08:37:16;;;;;;;12.13;5.88;;;0.70;99.90;;;-1.06;100.00;100062.22;5006491;28;20029;-80
2022/12/08 08:39:42;;;;;;;14.50;5.28;;;0.70;99.90;;;-1.04;100.00;100071.69;5023463;28;20029;-79
2022/12/08 08:42:10;;;;;;;16.20;5.10;;;0.70;99.90;;;-1.05;100.00;100067.38;5003244;28;20022;-79
2022/12/08 08:44:37;;;;;;;14.65;5.18;;;0.70;99.90;;;-1.02;100.00;100071.66;5004497;28;20049;-79
2022/12/08 08:47:03;;;;;;;14.93;5.65;;;0.70;99.90;;;-1.18;100.00;100064.94;5008595;28;20505;-79
2022/12/08 08:49:29;;;;;;;12.45;5.35;;;0.70;99.90;;;-1.00;100.00;100067.34;5006349;28;20052;-80
2022/12/08 08:51:54;;;;;;;21.67;5.88;;;0.80;99.90;;;-0.83;100.00;100074.91;5021407;28;20136;-78
2022/12/08 08:54:23;;;;;;;15.73;5.43;;;0.90;99.90;;;-0.71;100.00;100074.81;4988997;28;20120;-80
2022/12/08 08:56:48;;;;;;;15.48;5.88;;;0.90;99.90;;;-0.78;100.00;100073.13;5003825;28;20482;-80
2022/12/08 08:59:14;;;;;;;21.08;7.18;;;0.90;99.90;;;-0.70;100.00;100078.22;5011702;28;20028;-79
2022/12/08 09:01:40;;;;;;;19.92;7.10;;;1.00;99.90;;;-0.59;100.00;100085.88;5022684;28;20113;-80
2022/12/08 09:04:09;;;;;;;22.98;7.20;;;1.00;99.90;;;-0.51;100.00;100084.06;5005120;28;20048;-80
2022/12/08 09:06:35;;;;;;;21.73;7.65;;;1.10;99.90;;;-0.56;100.00;100085.81;5000616;28;20037;-79
2022/12/08 09:09:04;;;;;;;18.08;7.47;;;1.20;99.90;;;-0.43;100.00;100087.41;5020198;28;20140;-80
2022/12/08 09:11:34;;;;;;;21.10;8.27;;;1.20;99.90;;;-0.38;100.00;100090.78;5017386;28;20053;-80
2022/12/08 09:13:59;;;;;;;18.38;6.78;;;1.10;99.90;;;-0.57;100.00;100078.97;4986230;28;20053;-80
2022/12/08 09:16:25;;;;;;;16.45;6.80;;;1.20;99.90;;;-0.48;100.00;100074.53;4987744;28;20037;-79
2022/12/08 09:18:52;;;;;;;22.42;7.63;;;1.10;99.90;;;-0.52;100.00;100078.03;5018830;28;20129;-80
2022/12/08 09:21:22;;;;;;;17.20;7.30;;;1.20;99.90;;;-0.58;100.00;100074.63;5019976;28;20044;-80
2022/12/08 09:23:58;;;;;;;21.60;6.97;;;1.20;99.90;;;-0.33;100.00;100083.81;5019837;28;20514;-80
2022/12/08 09:26:27;;;;;;;21.98;7.97;;;1.40;99.90;;;-0.14;100.00;100081.03;5006665;28;20496;-78
2022/12/08 09:28:55;;;;;;;17.30;7.05;;;1.40;99.90;;;-0.19;100.00;100078.50;5019113;28;20033;-79
2022/12/08 09:31:23;;;;;;;17.65;6.60;;;1.50;99.90;;;-0.11;100.00;100087.03;5002577;28;20071;-80
2022/12/08 09:33:55;;;;;;;17.80;6.90;;;1.50;99.90;;;-0.02;100.00;100086.03;5001958;28;20048;-79
2022/12/08 09:36:21;;;;;;;22.42;6.47;;;1.50;99.90;;;-0.15;100.00;100081.88;5021372;28;20038;-79
2022/12/08 09:38:49;;;;;;;16.20;5.50;;;1.40;99.90;;;-0.35;100.00;100077.81;5021412;28;20040;-80
2022/12/08 09:41:38;;;;;;;17.13;6.00;;;1.50;99.90;;;-0.17;100.00;100075.88;5004548;28;20474;-78
2022/12/08 09:44:39;;;;;;;14.25;6.05;;;1.40;99.90;;;-0.35;100.00;100082.13;4985817;28;20103;-79
2022/12/08 09:47:31;;;;;;;14.90;5.90;;;1.40;99.90;;;-0.33;100.00;100076.06;5002127;28;20061;-79
2022/12/08 09:50:32;;;;;;;13.35;6.10;;;1.40;99.90;;;-0.13;100.00;100069.78;5004161;28;20033;-79
2022/12/08 09:53:38;;;;;;;13.60;4.68;;;1.50;99.90;;;-0.08;100.00;100074.03;5020017;28;20037;-79
2022/12/08 09:56:32;;;;;;;15.40;5.68;;;1.60;99.90;;;-0.04;100.00;100061.91;5024550;28;20084;-79
2022/12/08 09:59:07;;;;;;;15.57;5.60;;;1.60;99.90;;;0.05;100.00;100061.78;5009027;28;20030;-80
2022/12/08 10:01:40;;;;;;;14.52;5.78;;;1.70;99.90;;;0.12;100.00;100068.56;5025239;28;20022;-79
2022/12/08 10:04:30;;;;;;;15.73;5.90;;;1.70;99.90;;;0.12;100.00;100059.94;5023794;28;20087;-80
2022/12/08 10:07:15;;;;;;;15.35;5.90;;;1.70;99.90;;;0.09;100.00;100062.59;4990733;28;20048;-80
2022/12/08 10:09:59;;;;;;;14.80;5.47;;;1.80;99.90;;;0.19;100.00;100061.56;5023031;28;20037;-79
2022/12/08 10:13:05;;;;;;;17.23;5.10;;;1.80;99.90;;;0.08;100.00;100061.72;5026599;28;20026;-79
2022/12/08 10:15:42;;;;;;;13.73;5.43;;;1.80;99.90;;;0.16;100.00;100059.88;5022360;28;20042;-80
2022/12/08 10:18:19;;;;;;;14.00;5.63;;;1.80;99.90;;;0.13;100.00;100054.75;5006766;28;20033;-80
2022/12/08 10:20:51;;;;;;;18.05;6.32;;;1.80;99.90;;;0.14;100.00;100050.44;5021692;28;20030;-78
2022/12/08 10:23:23;;;;;;;13.68;5.20;;;1.80;99.90;;;0.16;100.00;100051.25;5006103;28;20428;-80
2022/12/08 10:26:13;;;;;;;12.23;5.90;;;1.70;99.90;;;0.12;100.00;100053.03;5024394;28;20025;-79
2022/12/08 10:28:39;;;;;;;13.35;6.15;;;1.80;99.90;;;0.08;100.00;100046.19;4991128;28;20022;-80
2022/12/08 10:31:05;;;;;;;12.45;5.55;;;1.70;99.90;;;0.03;100.00;100058.34;4990381;28;20449;-79
2022/12/08 10:33:32;;;;;;;13.57;5.18;;;1.70;99.90;;;0.09;100.00;100053.09;5005571;28;20044;-79
2022/12/08 10:36:04;;;;;;;8.30;4.80;;;1.70;99.90;;;0.04;100.00;100049.69;4991031;28;20026;-80
2022/12/08 10:38:36;;;;;;;7.57;4.07;;;2.60;99.90;;;0.07;100.00;100048.81;5023495;28;20135;-80
2022/12/08 10:41:10;;;;;;;10.45;4.47;;;1.80;99.90;;;0.19;100.00;100049.50;5006525;28;20390;-78
2022/12/08 10:44:00;;;;;;;13.00;4.88;;;1.80;99.90;;;0.11;100.00;100043.56;5020954;28;20500;-78
2022/12/08 10:46:27;;;;;;;11.57;4.32;;;1.70;99.90;;;0.14;100.00;100050.44;5019936;28;20048;-79
2022/12/08 10:49:05;;;;;;;8.27;4.22;;;1.80;99.90;;;0.15;100.00;100047.81;5010246;28;20052;-78
2022/12/08 10:51:47;;;;;;;10.98;4.53;;;1.80;99.90;;;0.31;100.00;100048.44;5024593;28;20057;-78
2022/12/08 10:54:37;;;;;;;11.52;4.63;;;1.90;99.90;;;0.47;100.00;100059.41;5022329;28;20026;-78
2022/12/08 10:57:06;;;;;;;11.55;4.03;;;2.00;99.90;;;0.49;100.00;100056.81;5017524;28;20034;-78
2022/12/08 10:59:33;;;;;;;13.25;5.53;;;2.10;99.90;;;0.63;100.00;100065.22;5022832;28;20025;-78
2022/12/08 11:01:59;;;;;;;9.52;4.68;;;2.10;99.90;;;0.67;100.00;100066.88;5021085;28;20026;-78
2022/12/08 11:04:43;;;;;;;10.18;4.20;;;2.10;99.90;;;0.63;100.00;100069.50;5020924;28;20072;-78
2022/12/08 11:07:10;;;;;;;9.70;4.78;;;2.20;99.90;;;0.66;100.00;100067.75;5021871;28;20029;-79
2022/12/08 11:09:47;;;;;;;9.05;4.85;;;2.20;99.90;;;0.69;100.00;100065.13;5003510;28;20080;-78
2022/12/08 11:12:20;;;;;;;12.30;5.10;;;2.20;99.90;;;0.67;100.00;100060.81;5022543;28;20041;-78
2022/12/08 11:15:05;;;;;;;11.75;5.55;;;2.20;99.90;;;0.63;100.00;100065.22;5004518;28;20050;-78
2022/12/08 11:17:43;;;;;;;13.38;5.20;;;2.20;99.90;;;0.72;100.00;100062.47;5005376;28;20554;-79
2022/12/08 11:20:19;;;;;;;11.00;5.40;;;2.30;99.90;;;0.75;100.00;100067.56;5022061;28;20498;-78
2022/12/08 11:23:01;;;;;;;14.45;5.50;;;2.30;99.90;;;0.75;100.00;100069.31;5021548;28;20049;-78
2022/12/08 11:25:30;;;;;;;10.63;5.60;;;2.30;99.90;;;0.77;100.00;100067.56;5008798;28;20038;-79
2022/12/08 11:28:02;;;;;;;12.77;6.20;;;2.30;99.90;;;0.85;100.00;100070.03;5007384;28;20601;-78
2022/12/08 11:30:40;;;;;;;11.13;5.78;;;2.40;99.90;;;0.89;100.00;100077.72;5020955;28;20065;-79
2022/12/08 11:33:26;;;;;;;11.00;5.90;;;2.30;99.90;;;0.70;100.00;100065.97;5002117;28;20037;-78
2022/12/08 11:36:09;;;;;;;11.30;6.57;;;2.30;99.90;;;0.83;100.00;100064.88;5018064;28;20038;-78
2022/12/08 11:38:45;;;;;;;11.23;5.35;;;2.20;99.90;;;0.51;100.00;100058.47;5007567;28;20108;-78
2022/12/08 11:41:20;;;;;;;13.55;5.75;;;2.20;99.90;;;0.50;100.00;100054.19;5023264;28;20100;-78
2022/12/08 11:44:04;;;;;;;10.48;5.75;;;2.30;99.90;;;0.80;100.00;100062.34;5004062;28;20069;-78
2022/12/08 11:47:44;;;;;;;10.88;6.38;;;2.40;99.90;;;0.97;100.00;100064.63;5020851;28;20040;-80
2022/12/08 11:50:39;;;;;;;13.63;5.97;;;2.50;99.90;;;1.02;100.00;100065.41;5004999;28;20026;-79
2022/12/08 11:53:31;;;;;;;12.05;6.63;;;2.40;99.90;;;1.01;100.00;100056.75;5002998;28;20029;-78
2022/12/08 11:56:39;;;;;;;12.73;6.13;;;2.50;99.90;;;1.01;100.00;100059.34;5019789;28;20490;-79
2022/12/08 11:59:23;;;;;;;14.23;6.03;;;2.50;99.90;;;1.03;100.00;100065.34;5014927;28;20067;-78
2022/12/08 12:02:00;;;;;;;11.38;6.38;;;2.50;99.90;;;1.08;100.00;100070.50;5028727;28;20042;-80
2022/12/08 12:04:55;;;;;;;13.27;6.28;;;2.50;99.90;;;1.14;100.00;100067.75;5017915;28;20405;-78
2022/12/08 12:08:32;;;;;;;13.25;5.60;;;2.60;99.90;;;1.26;100.00;100061.50;5022247;28;20579;-80
2022/12/08 12:15:13;;;;;;;12.50;5.97;;;2.80;99.90;;;1.49;99.22;100067.97;5033843;28;20039;-79
2022/12/08 12:17:58;;;;;;;14.80;6.57;;;2.80;99.90;;;1.47;98.75;100072.31;5032884;28;20025;-80
2022/12/08 12:20:57;;;;;;;12.85;6.82;;;2.80;99.90;;;1.38;98.17;100078.56;5018045;28;20029;-79
2022/12/08 12:24:07;;;;;;;11.68;6.57;;;2.80;99.90;;;1.34;98.22;100082.09;5015125;28;20132;-78
2022/12/08 12:26:40;;;;;;;15.00;7.20;;;2.80;99.90;;;1.32;98.09;100083.84;4984838;28;20049;-78
2022/12/08 12:29:22;;;;;;;15.05;6.07;;;2.80;99.90;;;1.33;98.23;100083.84;5005625;28;20034;-79
2022/12/08 12:31:54;;;;;;;10.20;5.90;;;2.80;99.90;;;1.29;97.92;100081.34;5006366;28;20081;-80
2022/12/08 12:34:47;;;;;;;13.38;5.68;;;2.70;99.90;;;1.27;98.16;100089.13;5008265;28;20063;-80
2022/12/08 12:37:19;;;;;;;12.30;6.20;;;2.70;99.90;;;1.28;98.40;100088.25;5020034;28;20489;-78
2022/12/08 12:39:59;;;;;;;9.38;5.55;;;2.70;99.90;;;1.19;97.93;100078.91;5018407;28;20049;-79
2022/12/08 12:42:43;;;;;;;10.90;5.68;;;2.70;99.90;;;1.17;97.70;100082.44;5031835;28;20044;-79
2022/12/08 12:45:15;;;;;;;12.65;5.65;;;2.70;99.90;;;1.28;97.64;100075.28;5018427;28;20880;-80
2022/12/08 12:47:54;;;;;;;10.90;5.43;;;2.70;99.90;;;1.37;97.91;100077.72;5033675;28;20026;-79
2022/12/08 12:50:32;;;;;;;9.52;5.25;;;2.80;99.90;;;1.38;97.63;100079.44;5035706;28;20037;-80
2022/12/08 12:53:16;;;;;;;8.93;5.20;;;;;;;1.41;97.53;100078.50;5036886;28;20167;-80
2022/12/08 12:55:53;;;;;;;9.13;5.03;;;2.80;99.90;;;1.39;97.16;100081.13;5020218;28;20045;-80
2022/12/08 12:58:35;;;;;;;8.20;5.22;;;2.80;99.90;;;1.38;96.60;100082.03;5027016;28;20040;-81